Time;durP1;ratioP1;P1;durP2;ratioP2;P2;SDS_P1;SDS_P2;PMS_P1;PMS_P2;Temp;Humidity;BMP_temperature;BMP_pressure;BME280_temperature;BME280_humidity;BME280_pressure;Samples;Min_cycle;Max_cycle;Signal;HPM_P1;HPM_P2
2022/05/31 03:07:04;;;;;;;;;;;16.60;67.30;;;;;;5339434;24;19933;-74
2022/05/31 03:09:30;;;;;;;;;;;16.60;66.90;;;;;;4773263;30;19949;-74
2022/05/31 03:12:02;;;;;;;;;;;16.60;67.00;;;;;;4774846;30;19937;-74
2022/05/31 03:14:30;;;;;;;;;;;16.60;66.90;;;;;;4775916;30;19925;-74
2022/05/31 03:17:00;;;;;;;;;;;16.60;66.90;;;;;;4775130;30;20330;-75
2022/05/31 03:19:27;;;;;;;;;;;16.60;66.70;;;;;;4774872;30;19955;-73
2022/05/31 03:21:55;;;;;;;;;;;16.60;66.70;;;;;;4774951;30;19936;-75
2022/05/31 03:24:24;;;;;;;;;;;16.50;66.60;;;;;;4762031;30;19937;-77
2022/05/31 03:26:50;;;;;;;;;;;16.50;66.70;;;;;;4792615;30;19921;-74
2022/05/31 03:29:22;;;;;;;;;;;16.50;66.90;;;;;;4792139;30;20396;-78
2022/05/31 03:31:47;;;;;;;;;;;16.50;66.60;;;;;;4789954;30;19921;-75
2022/05/31 03:34:13;;;;;;;;;;;16.60;67.00;;;;;;4778411;29;20260;-77
2022/05/31 03:36:39;;;;;;;;;;;16.60;66.90;;;;;;4810328;29;19928;-77
2022/05/31 03:39:04;;;;;;;;;;;16.50;66.90;;;;;;4776760;30;19922;-75
2022/05/31 03:41:34;;;;;;;;;;;16.60;66.80;;;;;;4776966;30;19929;-77
2022/05/31 03:43:59;;;;;;;;;;;16.60;67.00;;;;;;4792020;30;20345;-74
2022/05/31 03:46:25;;;;;;;;;;;16.60;65.80;;;;;;4776213;30;19921;-77
2022/05/31 03:48:51;;;;;;;;;;;16.60;66.60;;;;;;4775828;30;19928;-76
2022/05/31 03:51:16;;;;;;;;;;;16.60;66.90;;;;;;4776532;30;20016;-76
2022/05/31 03:53:42;;;;;;;;;;;16.60;66.80;;;;;;4791935;30;19926;-77
2022/05/31 03:56:09;;;;;;;;;;;16.60;66.90;;;;;;4776503;30;19925;-77
2022/05/31 03:58:34;;;;;;;;;;;16.60;66.80;;;;;;4761778;30;20365;-78
2022/05/31 04:01:00;;;;;;;;;;;16.60;66.80;;;;;;4776263;30;20008;-78
2022/05/31 04:03:26;;;;;;;;;;;16.70;66.90;;;;;;4792262;30;19925;-78
2022/05/31 04:05:53;;;;;;;;;;;16.60;66.70;;;;;;4792155;30;19936;-75
2022/05/31 04:08:20;;;;;;;;;;;16.70;67.00;;;;;;4791721;30;19959;-77
2022/05/31 04:10:46;;;;;;;;;;;16.60;66.90;;;;;;4792042;30;20333;-77
2022/05/31 04:13:12;;;;;;;;;;;16.70;66.60;;;;;;4791850;30;20024;-75
2022/05/31 04:15:38;;;;;;;;;;;16.60;67.00;;;;;;4776827;30;19936;-76
2022/05/31 04:18:08;;;;;;;;;;;16.70;67.00;;;;;;4775385;30;20346;-77
2022/05/31 04:20:34;;;;;;;;;;;16.70;66.90;;;;;;4791326;30;19925;-75
2022/05/31 04:25:45;;;;;;;;;;;16.70;66.90;;;;;;4791399;30;19925;-77
2022/05/31 04:28:11;;;;;;;;;;;16.70;66.60;;;;;;4775557;30;19929;-75
2022/05/31 04:30:37;;;;;;;;;;;16.70;66.30;;;;;;4791332;30;20265;-75
2022/05/31 04:33:03;;;;;;;;;;;16.80;66.10;;;;;;4775011;30;20365;-78
2022/05/31 04:35:29;;;;;;;;;;;17.00;66.10;;;;;;4775975;30;19933;-76
2022/05/31 04:37:54;;;;;;;;;;;17.10;66.10;;;;;;4791532;30;19946;-75
2022/05/31 04:40:29;;;;;;;;;;;17.20;66.00;;;;;;4790833;30;19980;-76
2022/05/31 04:42:54;;;;;;;;;;;17.10;64.50;;;;;;4775024;30;20238;-75
2022/05/31 04:45:20;;;;;;;;;;;17.20;65.40;;;;;;4775237;30;20024;-76
2022/05/31 04:47:46;;;;;;;;;;;17.30;65.50;;;;;;4775273;30;20365;-74
2022/05/31 04:50:11;;;;;;;;;;;17.40;65.70;;;;;;4775479;30;19932;-73
2022/05/31 04:52:37;;;;;;;;;;;17.40;65.20;;;;;;4775480;30;19926;-74
2022/05/31 04:55:03;;;;;;;;;;;17.50;64.40;;;;;;4791918;30;19925;-72
2022/05/31 04:57:29;;;;;;;;;;;17.50;64.10;;;;;;4790432;30;19961;-72
2022/05/31 04:59:54;;;;;;;;;;;17.50;63.30;;;;;;4773692;30;19979;-75
2022/05/31 05:02:20;;;;;;;;;;;17.60;62.60;;;;;;4773302;30;19966;-72
2022/05/31 05:04:45;;;;;;;;;;;17.60;62.60;;;;;;4773243;30;20223;-71
2022/05/31 05:07:12;;;;;;;;;;;17.70;61.70;;;;;;4757311;30;19926;-73
2022/05/31 05:09:37;;;;;;;;;;;17.80;61.70;;;;;;4773265;30;19987;-73
2022/05/31 05:12:03;;;;;;;;;;;17.90;60.40;;;;;;4759942;30;19993;-76
2022/05/31 05:14:29;;;;;;;;;;;18.00;60.70;;;;;;4790770;30;20244;-72
2022/05/31 05:16:55;;;;;;;;;;;18.10;60.70;;;;;;4790785;30;19922;-74
2022/05/31 05:19:20;;;;;;;;;;;18.20;61.40;;;;;;4774391;30;20242;-74
2022/05/31 05:21:46;;;;;;;;;;;18.20;60.80;;;;;;4775266;30;19925;-73
2022/05/31 05:24:12;;;;;;;;;;;18.30;61.20;;;;;;4775147;30;19925;-73
2022/05/31 05:26:37;;;;;;;;;;;18.50;60.90;;;;;;4790882;30;19925;-73
2022/05/31 05:31:52;;;;;;;;;;;18.60;61.50;;;;;;4790590;30;19925;-73
2022/05/31 05:34:18;;;;;;;;;;;18.70;61.50;;;;;;4790569;30;19925;-73
2022/05/31 05:36:45;;;;;;;;;;;18.80;61.30;;;;;;4790772;30;19936;-74
2022/05/31 05:39:11;;;;;;;;;;;18.90;60.90;;;;;;4790248;30;19940;-78
2022/05/31 05:41:37;;;;;;;;;;;18.90;60.40;;;;;;4790908;30;19926;-77
2022/05/31 05:44:03;;;;;;;;;;;18.90;60.50;;;;;;4775382;30;19933;-77
2022/05/31 05:46:29;;;;;;;;;;;18.90;61.10;;;;;;4774706;30;20000;-78
2022/05/31 05:48:55;;;;;;;;;;;18.90;61.40;;;;;;4790057;30;19929;-75
2022/05/31 05:51:21;;;;;;;;;;;18.90;61.70;;;;;;4790569;30;19929;-78
2022/05/31 05:53:47;;;;;;;;;;;18.80;62.00;;;;;;4790527;30;19944;-77
2022/05/31 05:56:13;;;;;;;;;;;18.70;62.40;;;;;;4790243;30;20329;-80
2022/05/31 05:58:39;;;;;;;;;;;18.70;62.60;;;;;;4789960;30;19990;-78
2022/05/31 06:01:06;;;;;;;;;;;18.70;63.00;;;;;;4774492;30;19933;-78
2022/05/31 06:03:37;;;;;;;;;;;18.60;63.10;;;;;;4790234;30;19926;-76
2022/05/31 06:06:03;;;;;;;;;;;18.60;63.00;;;;;;4774759;30;20345;-79
2022/05/31 06:08:30;;;;;;;;;;;18.60;62.40;;;;;;4789802;30;19925;-77
2022/05/31 06:10:56;;;;;;;;;;;18.50;62.30;;;;;;4774342;30;19925;-78
2022/05/31 06:13:27;;;;;;;;;;;18.50;62.30;;;;;;4790116;30;19925;-80
2022/05/31 06:15:54;;;;;;;;;;;18.30;58.90;;;;;;4774193;30;19921;-83
2022/05/31 06:18:22;;;;;;;;;;;18.30;62.10;;;;;;4759761;30;19921;-84
2022/05/31 06:20:50;;;;;;;;;;;18.30;62.50;;;;;;4758948;30;19932;-79
2022/05/31 06:23:15;;;;;;;;;;;18.30;63.20;;;;;;4774122;30;19921;-77
2022/05/31 06:25:41;;;;;;;;;;;18.30;62.80;;;;;;4774001;30;20253;-78
2022/05/31 06:28:07;;;;;;;;;;;18.30;62.90;;;;;;4774100;30;19929;-79
2022/05/31 06:30:33;;;;;;;;;;;18.30;62.50;;;;;;4790214;30;19929;-77
2022/05/31 06:32:58;;;;;;;;;;;18.30;62.90;;;;;;4789599;30;20223;-75
2022/05/31 06:35:24;;;;;;;;;;;18.30;63.20;;;;;;4790231;30;19937;-79
2022/05/31 06:37:50;;;;;;;;;;;18.20;59.20;;;;;;4775079;30;19933;-76
2022/05/31 06:40:16;;;;;;;;;;;18.30;63.20;;;;;;4789896;30;19983;-77
2022/05/31 06:42:41;;;;;;;;;;;18.30;63.60;;;;;;4788248;30;20325;-75
2022/05/31 06:45:07;;;;;;;;;;;18.10;59.20;;;;;;4789895;30;19925;-76
2022/05/31 06:47:33;;;;;;;;;;;18.20;63.60;;;;;;4773870;30;19925;-77
2022/05/31 06:49:58;;;;;;;;;;;18.10;63.70;;;;;;4759417;30;20379;-77
2022/05/31 06:57:52;;;;;;;;;;;18.20;63.50;;;;;;4792790;30;19921;-78
2022/05/31 07:00:19;;;;;;;;;;;18.20;63.50;;;;;;4793192;30;19977;-76
2022/05/31 07:02:45;;;;;;;;;;;18.20;63.40;;;;;;4762373;30;19967;-78
2022/05/31 07:05:11;;;;;;;;;;;18.20;63.40;;;;;;4793483;30;19969;-77
2022/05/31 07:07:37;;;;;;;;;;;18.10;63.30;;;;;;4792774;30;19925;-78
2022/05/31 07:10:06;;;;;;;;;;;18.20;63.40;;;;;;4776891;30;19925;-76
2022/05/31 07:12:32;;;;;;;;;;;18.20;63.40;;;;;;4792696;30;19948;-77
2022/05/31 07:14:58;;;;;;;;;;;18.10;63.30;;;;;;4793072;30;19936;-76
2022/05/31 07:17:23;;;;;;;;;;;18.10;63.40;;;;;;4777311;30;19925;-77
2022/05/31 07:19:49;;;;;;;;;;;18.10;63.40;;;;;;4792705;30;19936;-78
2022/05/31 07:22:15;;;;;;;;;;;18.10;63.40;;;;;;4777014;30;19995;-78
2022/05/31 07:24:41;;;;;;;;;;;18.10;63.50;;;;;;4792792;30;20007;-77
2022/05/31 07:27:06;;;;;;;;;;;18.10;63.50;;;;;;4792850;30;19947;-77
2022/05/31 07:29:32;;;;;;;;;;;18.10;63.40;;;;;;4792871;30;19933;-76
2022/05/31 07:31:57;;;;;;;;;;;18.10;63.40;;;;;;4792413;30;19936;-77
2022/05/31 07:34:23;;;;;;;;;;;18.00;63.30;;;;;;4792143;30;19963;-76
2022/05/31 07:36:49;;;;;;;;;;;18.00;63.50;;;;;;4792354;30;19996;-76
2022/05/31 07:39:16;;;;;;;;;;;18.00;63.70;;;;;;4793102;30;19925;-76
2022/05/31 07:41:42;;;;;;;;;;;18.00;63.80;;;;;;4791959;30;20349;-77
2022/05/31 07:44:08;;;;;;;;;;;18.00;64.30;;;;;;4792396;30;20024;-78
2022/05/31 07:46:35;;;;;;;;;;;18.00;64.40;;;;;;4792282;30;20293;-78
2022/05/31 07:49:01;;;;;;;;;;;18.00;64.50;;;;;;4776781;30;19955;-77
2022/05/31 07:51:27;;;;;;;;;;;18.00;64.70;;;;;;4792018;30;19926;-78
2022/05/31 07:53:52;;;;;;;;;;;18.00;65.00;;;;;;4792757;30;20314;-76
2022/05/31 07:56:18;;;;;;;;;;;18.00;65.00;;;;;;4792371;30;20230;-76
2022/05/31 07:58:44;;;;;;;;;;;18.00;65.10;;;;;;4792162;30;19932;-77
2022/05/31 08:01:12;;;;;;;;;;;18.00;65.20;;;;;;4791990;30;19929;-76
2022/05/31 08:03:38;;;;;;;;;;;18.00;65.40;;;;;;4773735;30;20016;-73
2022/05/31 08:06:06;;;;;;;;;;;18.00;65.00;;;;;;4758406;30;20015;-71
2022/05/31 08:08:32;;;;;;;;;;;18.10;64.80;;;;;;4772807;30;19936;-72
2022/05/31 08:11:01;;;;;;;;;;;18.10;64.60;;;;;;4774432;30;19926;-76
2022/05/31 08:13:27;;;;;;;;;;;18.10;64.30;;;;;;4789664;30;20012;-76
2022/05/31 08:15:52;;;;;;;;;;;18.10;63.80;;;;;;4791487;30;19975;-72
2022/05/31 08:18:18;;;;;;;;;;;18.10;64.10;;;;;;4791602;30;19929;-71
2022/05/31 08:20:43;;;;;;;;;;;18.10;63.90;;;;;;4791162;30;19997;-78
2022/05/31 08:23:10;;;;;;;;;;;18.10;63.80;;;;;;4775795;30;19921;-78
2022/05/31 08:25:38;;;;;;;;;;;18.10;63.70;;;;;;4791842;30;20008;-76
2022/05/31 08:28:04;;;;;;;;;;;18.20;63.60;;;;;;4791063;30;19941;-71
2022/05/31 08:30:30;;;;;;;;;;;18.20;63.20;;;;;;4791399;30;19934;-72
2022/05/31 08:32:56;;;;;;;;;;;18.20;63.50;;;;;;4792163;30;19949;-71
2022/05/31 08:35:21;;;;;;;;;;;18.20;63.50;;;;;;4791125;30;20345;-73
2022/05/31 08:37:47;;;;;;;;;;;18.20;62.90;;;;;;4792583;29;19926;-77
2022/05/31 08:40:13;;;;;;;;;;;18.20;62.80;;;;;;4775078;30;19925;-75
2022/05/31 08:42:57;;;;;;;;;;;18.20;62.80;;;;;;4800833;29;19931;-71
2022/05/31 08:45:29;;;;;;;;;;;18.20;62.70;;;;;;4799406;29;19994;-68
2022/05/31 08:48:19;;;;;;;;;;;18.20;60.60;;;;;;4790992;29;20401;-71
2022/05/31 08:56:56;;;;;;;;;;;18.20;60.10;;;;;;4747565;30;19994;-73
2022/05/31 08:59:35;;;;;;;;;;;18.20;59.30;;;;;;4790848;30;19934;-72
2022/05/31 09:02:03;;;;;;;;;;;18.20;59.60;;;;;;4788942;30;19933;-76
2022/05/31 09:04:32;;;;;;;;;;;18.30;59.40;;;;;;4773431;30;20353;-74
2022/05/31 09:07:06;;;;;;;;;;;18.30;59.70;;;;;;4774887;30;19952;-75
2022/05/31 09:09:35;;;;;;;;;;;18.30;59.80;;;;;;4775224;30;20297;-72
2022/05/31 09:12:06;;;;;;;;;;;18.30;59.90;;;;;;4790299;30;19929;-75
2022/05/31 09:14:41;;;;;;;;;;;18.30;60.20;;;;;;4788672;30;19927;-71
2022/05/31 09:17:16;;;;;;;;;;;18.30;60.30;;;;;;4790265;30;20286;-71
2022/05/31 09:19:49;;;;;;;;;;;18.30;60.00;;;;;;4790274;30;19926;-72
2022/05/31 09:22:15;;;;;;;;;;;18.30;59.40;;;;;;4790277;30;19925;-71
2022/05/31 09:24:41;;;;;;;;;;;18.30;59.00;;;;;;4790524;30;20426;-74
2022/05/31 09:27:26;;;;;;;;;;;18.30;59.00;;;;;;4790509;30;20020;-74
2022/05/31 09:30:13;;;;;;;;;;;18.30;58.90;;;;;;4790393;30;20222;-71
2022/05/31 09:32:46;;;;;;;;;;;18.30;56.90;;;;;;4774447;30;19925;-74
2022/05/31 09:35:21;;;;;;;;;;;18.30;56.90;;;;;;4774672;30;19926;-73
2022/05/31 09:37:58;;;;;;;;;;;18.30;57.70;;;;;;4774667;30;19925;-74
2022/05/31 09:40:30;;;;;;;;;;;18.30;58.20;;;;;;4790770;30;20249;-74
2022/05/31 09:43:02;;;;;;;;;;;18.30;58.50;;;;;;4789900;30;19954;-73
2022/05/31 09:45:29;;;;;;;;;;;18.30;58.70;;;;;;4774144;30;19993;-72
2022/05/31 09:47:55;;;;;;;;;;;18.30;58.90;;;;;;4775248;30;19925;-73
2022/05/31 09:50:24;;;;;;;;;;;18.30;59.00;;;;;;4790428;30;19940;-74
2022/05/31 09:52:56;;;;;;;;;;;18.30;59.20;;;;;;4789825;30;20389;-75
2022/05/31 09:58:25;;;;;;;;;;;18.30;59.40;;;;;;4790455;30;19926;-74
2022/05/31 10:01:04;;;;;;;;;;;18.30;59.60;;;;;;4774403;30;20405;-73
2022/05/31 10:03:38;;;;;;;;;;;18.30;59.50;;;;;;4783325;30;20274;-74
2022/05/31 10:06:12;;;;;;;;;;;18.30;59.60;;;;;;4786574;30;20334;-75
2022/05/31 10:08:38;;;;;;;;;;;18.30;59.50;;;;;;4760185;30;20330;-72
2022/05/31 10:11:05;;;;;;;;;;;18.30;59.70;;;;;;4756408;30;19995;-73
2022/05/31 10:13:53;;;;;;;;;;;18.30;59.70;;;;;;4771676;30;19929;-72
2022/05/31 10:16:24;;;;;;;;;;;18.30;59.40;;;;;;4772410;30;19934;-71
2022/05/31 10:18:54;;;;;;;;;;;18.40;57.40;;;;;;4756433;30;19926;-72
2022/05/31 10:21:30;;;;;;;;;;;18.40;55.40;;;;;;4757176;30;20259;-71
2022/05/31 10:23:59;;;;;;;;;;;18.40;54.40;;;;;;4771766;30;19925;-68
2022/05/31 10:26:32;;;;;;;;;;;18.40;55.00;;;;;;4771864;30;19959;-70
2022/05/31 10:28:57;;;;;;;;;;;18.30;55.70;;;;;;4741946;30;19930;-71
2022/05/31 10:31:36;;;;;;;;;;;18.30;56.10;;;;;;4772905;30;20409;-72
2022/05/31 10:34:04;;;;;;;;;;;18.40;56.60;;;;;;4775331;30;20353;-76
2022/05/31 10:36:32;;;;;;;;;;;18.40;56.90;;;;;;4775452;30;19953;-77
2022/05/31 10:39:07;;;;;;;;;;;18.40;57.10;;;;;;4775639;30;19954;-74
2022/05/31 10:41:34;;;;;;;;;;;18.40;56.70;;;;;;4759606;30;19921;-74
2022/05/31 10:44:18;;;;;;;;;;;18.40;56.90;;;;;;4774878;30;19991;-73
2022/05/31 10:46:48;;;;;;;;;;;18.40;56.70;;;;;;4774165;30;19926;-77
2022/05/31 10:49:20;;;;;;;;;;;18.40;57.00;;;;;;4774890;30;19936;-76
2022/05/31 10:52:06;;;;;;;;;;;18.40;57.20;;;;;;4775409;30;19952;-76
2022/05/31 10:54:43;;;;;;;;;;;18.50;58.00;;;;;;4766939;30;19933;-75
2022/05/31 10:57:12;;;;;;;;;;;18.40;58.60;;;;;;4759581;30;19926;-74
2022/05/31 10:59:53;;;;;;;;;;;18.50;58.90;;;;;;4774933;30;19937;-76
2022/05/31 11:02:37;;;;;;;;;;;18.50;59.30;;;;;;4744515;30;20016;-74
2022/05/31 11:05:10;;;;;;;;;;;18.50;58.70;;;;;;4774867;30;19925;-76
2022/05/31 11:07:38;;;;;;;;;;;18.50;59.80;;;;;;4779205;30;19928;-75
2022/05/31 11:13:11;;;;;;;;;;;18.50;61.50;;;;;;4776326;30;19922;-74
2022/05/31 11:15:37;;;;;;;;;;;18.60;60.70;;;;;;4776734;30;19998;-76
2022/05/31 11:18:32;;;;;;;;;;;18.50;61.70;;;;;;4792545;30;19921;-74
2022/05/31 11:24:26;;;;;;;;;;;18.60;61.70;;;;;;4675989;30;19937;-76
2022/05/31 11:26:52;;;;;;;;;;;18.60;61.30;;;;;;4774834;30;19929;-74
2022/05/31 11:29:29;;;;;;;;;;;18.60;60.90;;;;;;4785727;30;20352;-73
2022/05/31 11:32:03;;;;;;;;;;;18.70;60.40;;;;;;4792302;30;19925;-74
2022/05/31 11:34:38;;;;;;;;;;;18.70;60.10;;;;;;4792223;30;19937;-75
2022/05/31 11:37:12;;;;;;;;;;;18.70;59.80;;;;;;4761863;30;19985;-75
2022/05/31 11:39:57;;;;;;;;;;;18.70;59.70;;;;;;4791930;30;20120;-76
2022/05/31 11:42:37;;;;;;;;;;;18.70;59.10;;;;;;4791605;29;19922;-77
2022/05/31 11:45:21;;;;;;;;;;;18.70;58.80;;;;;;4776509;30;19936;-75
2022/05/31 11:47:52;;;;;;;;;;;18.80;58.70;;;;;;4792502;30;19926;-77
2022/05/31 11:50:37;;;;;;;;;;;18.70;58.30;;;;;;4791617;30;19938;-75
2022/05/31 11:53:21;;;;;;;;;;;18.70;58.10;;;;;;4791785;30;19925;-71
2022/05/31 11:56:04;;;;;;;;;;;18.70;60.90;;;;;;4791007;30;19926;-73
2022/05/31 11:58:34;;;;;;;;;;;18.70;59.10;;;;;;4776014;30;20568;-71
2022/05/31 12:01:10;;;;;;;;;;;18.70;58.90;;;;;;4792159;30;19925;-75
2022/05/31 12:03:36;;;;;;;;;;;18.70;58.70;;;;;;4791999;30;19968;-73
2022/05/31 12:06:05;;;;;;;;;;;18.70;58.20;;;;;;4791445;30;19961;-72
2022/05/31 12:08:37;;;;;;;;;;;18.70;58.00;;;;;;4790795;30;20250;-71
2022/05/31 12:11:32;;;;;;;;;;;18.80;57.90;;;;;;4791352;30;19925;-73
2022/05/31 12:13:58;;;;;;;;;;;18.70;57.90;;;;;;4755537;30;20368;-71
2022/05/31 12:16:24;;;;;;;;;;;18.80;57.30;;;;;;4773735;30;20001;-73
2022/05/31 12:19:02;;;;;;;;;;;18.70;57.10;;;;;;4786164;30;19934;-71
2022/05/31 12:21:38;;;;;;;;;;;18.70;56.90;;;;;;4791008;30;20323;-72
2022/05/31 12:24:08;;;;;;;;;;;18.70;56.00;;;;;;4791789;30;19936;-71
2022/05/31 12:26:39;;;;;;;;;;;18.70;56.80;;;;;;4790929;30;19960;-72
2022/05/31 12:29:05;;;;;;;;;;;18.80;56.10;;;;;;4791170;30;20406;-72
2022/05/31 12:31:32;;;;;;;;;;;18.70;55.40;;;;;;4790850;30;19925;-72
2022/05/31 12:34:14;;;;;;;;;;;18.70;55.90;;;;;;4791348;30;19932;-74
2022/05/31 12:36:54;;;;;;;;;;;18.70;56.20;;;;;;4791080;30;19926;-74
2022/05/31 12:39:23;;;;;;;;;;;18.70;56.50;;;;;;4791236;30;19940;-73
2022/05/31 12:41:51;;;;;;;;;;;18.70;56.30;;;;;;4791466;30;20222;-71
2022/05/31 12:44:26;;;;;;;;;;;18.70;56.10;;;;;;4797315;29;20921;-71
2022/05/31 12:46:51;;;;;;;;;;;18.70;56.30;;;;;;4791072;30;19983;-72
2022/05/31 12:49:18;;;;;;;;;;;18.70;55.60;;;;;;4776250;30;19933;-72
2022/05/31 12:52:03;;;;;;;;;;;18.70;55.80;;;;;;4790675;30;20356;-70
2022/05/31 12:54:42;;;;;;;;;;;18.70;56.00;;;;;;4790034;29;19978;-71
2022/05/31 12:57:22;;;;;;;;;;;18.70;56.50;;;;;;4775095;30;19925;-72
2022/05/31 12:59:49;;;;;;;;;;;18.70;57.00;;;;;;4791797;30;20229;-73
2022/05/31 13:02:35;;;;;;;;;;;18.80;57.10;;;;;;4790540;30;20365;-74
2022/05/31 13:05:08;;;;;;;;;;;18.90;57.50;;;;;;4791315;30;20245;-72
2022/05/31 13:07:41;;;;;;;;;;;19.00;58.00;;;;;;4790084;30;20258;-76
2022/05/31 13:10:26;;;;;;;;;;;19.10;57.90;;;;;;4790631;30;19929;-73
2022/05/31 13:21:11;;;;;;;;;;;19.50;58.30;;;;;;4774898;30;19989;-72
2022/05/31 13:23:41;;;;;;;;;;;19.50;58.40;;;;;;4760519;30;19977;-73
2022/05/31 13:26:21;;;;;;;;;;;19.50;59.40;;;;;;4790858;30;19936;-72
2022/05/31 13:28:59;;;;;;;;;;;19.60;59.70;;;;;;4790183;30;19972;-76
2022/05/31 13:31:26;;;;;;;;;;;19.60;59.80;;;;;;4790477;30;20237;-73
2022/05/31 13:33:59;;;;;;;;;;;19.70;59.90;;;;;;4790534;30;20398;-76
2022/05/31 13:36:26;;;;;;;;;;;19.60;60.40;;;;;;4774837;30;19975;-73
2022/05/31 13:38:56;;;;;;;;;;;19.70;60.60;;;;;;4790173;30;19982;-74
2022/05/31 13:41:22;;;;;;;;;;;19.60;60.40;;;;;;4790127;30;20269;-75
2022/05/31 13:43:53;;;;;;;;;;;19.60;61.10;;;;;;4774257;30;19926;-75
2022/05/31 13:46:18;;;;;;;;;;;19.50;60.80;;;;;;4782582;30;20349;-73
2022/05/31 13:48:47;;;;;;;;;;;19.50;61.40;;;;;;4772643;30;19933;-75
2022/05/31 13:51:19;;;;;;;;;;;19.50;61.20;;;;;;4784727;30;20277;-75
2022/05/31 13:53:45;;;;;;;;;;;19.40;61.00;;;;;;4787051;29;19933;-73
2022/05/31 13:56:15;;;;;;;;;;;19.40;61.20;;;;;;4792988;29;20353;-77
2022/05/31 13:58:41;;;;;;;;;;;19.30;61.50;;;;;;4792572;29;19921;-73
2022/05/31 14:01:27;;;;;;;;;;;19.30;61.60;;;;;;4808404;29;19932;-73
2022/05/31 14:03:54;;;;;;;;;;;19.30;61.70;;;;;;4807635;29;19928;-72
2022/05/31 14:06:20;;;;;;;;;;;19.30;61.90;;;;;;4800047;29;19925;-72
2022/05/31 14:08:46;;;;;;;;;;;19.20;61.90;;;;;;4778287;30;20309;-73
2022/05/31 14:11:31;;;;;;;;;;;19.20;61.90;;;;;;4794040;30;20024;-74
2022/05/31 14:14:01;;;;;;;;;;;19.20;61.80;;;;;;4793695;30;19925;-74
2022/05/31 14:16:29;;;;;;;;;;;19.20;63.00;;;;;;4777902;30;19925;-75
2022/05/31 14:18:57;;;;;;;;;;;19.20;62.60;;;;;;4793815;29;19941;-74
2022/05/31 14:21:24;;;;;;;;;;;19.20;62.20;;;;;;4778023;30;19921;-74
2022/05/31 14:23:50;;;;;;;;;;;19.20;62.30;;;;;;4793664;30;19929;-73
2022/05/31 14:26:17;;;;;;;;;;;19.10;62.40;;;;;;4793746;30;19922;-74
2022/05/31 14:29:01;;;;;;;;;;;19.20;62.50;;;;;;4778244;29;19958;-72
2022/05/31 14:31:27;;;;;;;;;;;19.10;62.40;;;;;;4779323;30;19968;-74
2022/05/31 14:34:00;;;;;;;;;;;19.20;63.30;;;;;;4793131;30;19969;-74
2022/05/31 14:36:30;;;;;;;;;;;19.10;63.50;;;;;;4792713;30;19925;-73
2022/05/31 14:38:56;;;;;;;;;;;19.10;63.50;;;;;;4777632;30;19957;-72
2022/05/31 14:41:34;;;;;;;;;;;19.10;63.30;;;;;;4777416;30;19926;-72
2022/05/31 14:44:00;;;;;;;;;;;19.10;63.30;;;;;;4793270;30;19936;-75
2022/05/31 14:46:27;;;;;;;;;;;19.10;63.40;;;;;;4777835;30;20329;-74
2022/05/31 14:49:02;;;;;;;;;;;19.10;63.80;;;;;;4777506;30;19925;-72
2022/05/31 14:51:33;;;;;;;;;;;19.10;64.00;;;;;;4777875;30;19932;-73
2022/05/31 14:53:59;;;;;;;;;;;19.10;64.80;;;;;;4793812;30;19926;-72
2022/05/31 14:56:26;;;;;;;;;;;19.10;65.10;;;;;;4792369;30;19926;-72
2022/05/31 14:58:53;;;;;;;;;;;19.10;64.90;;;;;;4778120;30;19926;-73
2022/05/31 15:01:26;;;;;;;;;;;19.10;65.30;;;;;;4777499;30;19985;-73
2022/05/31 15:04:00;;;;;;;;;;;19.10;64.70;;;;;;4793009;30;19926;-74
2022/05/31 15:06:27;;;;;;;;;;;19.20;64.90;;;;;;4777005;30;19925;-73
2022/05/31 15:09:05;;;;;;;;;;;19.10;63.90;;;;;;4793066;30;20333;-74
2022/05/31 15:19:44;;;;;;;;;;;19.10;62.90;;;;;;4792978;30;19969;-75
2022/05/31 15:22:10;;;;;;;;;;;19.10;62.60;;;;;;4792791;30;19980;-72
2022/05/31 15:24:45;;;;;;;;;;;19.10;62.30;;;;;;4761702;30;19925;-77
2022/05/31 15:27:14;;;;;;;;;;;19.10;62.20;;;;;;4792852;30;19933;-75
2022/05/31 15:29:40;;;;;;;;;;;19.10;62.10;;;;;;4792044;30;20350;-73
2022/05/31 15:32:06;;;;;;;;;;;19.10;61.90;;;;;;4791414;30;19926;-75
2022/05/31 15:34:33;;;;;;;;;;;19.10;61.70;;;;;;4762003;30;20357;-74
2022/05/31 15:36:59;;;;;;;;;;;19.10;61.50;;;;;;4792474;30;19933;-72
2022/05/31 15:39:25;;;;;;;;;;;19.10;61.30;;;;;;4792320;30;19982;-73
2022/05/31 15:41:51;;;;;;;;;;;19.10;61.40;;;;;;4792468;30;19925;-75
2022/05/31 15:44:16;;;;;;;;;;;19.00;61.60;;;;;;4792296;30;19926;-74
2022/05/31 15:46:42;;;;;;;;;;;19.00;61.80;;;;;;4792216;30;19937;-74
2022/05/31 15:49:08;;;;;;;;;;;19.00;61.90;;;;;;4792739;30;19990;-73
2022/05/31 15:51:36;;;;;;;;;;;19.00;62.40;;;;;;4776326;30;19926;-72
2022/05/31 15:54:05;;;;;;;;;;;19.00;62.30;;;;;;4792347;30;20027;-72
2022/05/31 15:56:33;;;;;;;;;;;19.00;62.50;;;;;;4792079;30;19930;-75
2022/05/31 15:58:59;;;;;;;;;;;19.00;62.30;;;;;;4792234;30;20002;-73
2022/05/31 16:01:25;;;;;;;;;;;19.00;62.30;;;;;;4791898;30;20308;-72
2022/05/31 16:03:50;;;;;;;;;;;19.00;62.20;;;;;;4791973;30;19940;-73
2022/05/31 16:06:17;;;;;;;;;;;19.00;62.80;;;;;;4762030;30;19933;-74
2022/05/31 16:08:43;;;;;;;;;;;19.00;62.30;;;;;;4791855;30;19925;-74
2022/05/31 16:11:09;;;;;;;;;;;19.00;62.40;;;;;;4792283;30;19947;-73
2022/05/31 16:13:35;;;;;;;;;;;19.00;62.50;;;;;;4792790;30;19933;-71
2022/05/31 16:16:01;;;;;;;;;;;18.90;62.40;;;;;;4791919;30;19926;-74
2022/05/31 16:18:27;;;;;;;;;;;18.90;62.50;;;;;;4791857;30;19977;-73
2022/05/31 16:20:52;;;;;;;;;;;18.90;62.80;;;;;;4791644;30;20036;-73
2022/05/31 16:23:19;;;;;;;;;;;18.90;62.50;;;;;;4791980;30;19933;-75
2022/05/31 16:25:45;;;;;;;;;;;19.00;62.80;;;;;;4761369;30;19925;-75
2022/05/31 16:28:12;;;;;;;;;;;19.00;62.70;;;;;;4776156;30;20313;-73
2022/05/31 16:30:46;;;;;;;;;;;18.90;62.60;;;;;;4776013;30;19925;-74
2022/05/31 16:33:13;;;;;;;;;;;18.90;62.70;;;;;;4775387;30;19925;-73
2022/05/31 16:35:42;;;;;;;;;;;19.00;63.00;;;;;;4791726;30;19936;-73
2022/05/31 16:41:11;;;;;;;;;;;18.90;62.70;;;;;;4791264;30;19933;-73
2022/05/31 16:43:38;;;;;;;;;;;18.90;62.70;;;;;;4791552;30;19988;-74
2022/05/31 16:46:04;;;;;;;;;;;18.90;61.30;;;;;;4776255;30;20338;-75
2022/05/31 16:48:29;;;;;;;;;;;18.80;60.00;;;;;;4775570;30;19976;-76
2022/05/31 16:50:55;;;;;;;;;;;18.50;60.00;;;;;;4774950;30;20261;-73
2022/05/31 16:53:21;;;;;;;;;;;18.30;60.70;;;;;;4790958;30;19921;-72
2022/05/31 16:55:47;;;;;;;;;;;18.20;61.10;;;;;;4791147;30;19936;-73
2022/05/31 16:58:15;;;;;;;;;;;18.30;61.30;;;;;;4791098;30;19926;-74
2022/05/31 17:00:41;;;;;;;;;;;18.30;61.20;;;;;;4790941;29;19933;-75
2022/05/31 17:03:07;;;;;;;;;;;18.20;61.00;;;;;;4791202;30;20024;-76
2022/05/31 17:05:33;;;;;;;;;;;18.20;61.00;;;;;;4790892;30;19932;-73
2022/05/31 17:33:42;;;;;;;;;;;18.30;60.00;;;;;;5210519;24;20500;-70
2022/05/31 17:36:08;;;;;;;;;;;18.30;60.10;;;;;;4810343;29;19924;-70
2022/05/31 18:01:52;;;;;;;;;;;18.30;61.10;;;;;;4990361;24;19924;-71
2022/05/31 18:04:18;;;;;;;;;;;18.30;61.20;;;;;;4826594;29;19925;-69
2022/05/31 18:06:43;;;;;;;;;;;18.30;61.30;;;;;;4826497;29;20355;-70
2022/05/31 18:09:14;;;;;;;;;;;18.30;61.30;;;;;;4826421;29;19925;-69
2022/05/31 18:11:40;;;;;;;;;;;18.30;61.40;;;;;;4826465;29;19989;-69
2022/05/31 18:14:06;;;;;;;;;;;18.30;61.40;;;;;;4810333;29;19946;-70
2022/05/31 18:16:31;;;;;;;;;;;18.30;61.40;;;;;;4826515;29;20056;-70
2022/05/31 18:18:57;;;;;;;;;;;18.30;61.40;;;;;;4826348;29;19929;-71
2022/05/31 18:21:26;;;;;;;;;;;18.30;61.40;;;;;;4810117;29;19990;-71
2022/05/31 18:23:53;;;;;;;;;;;18.30;61.50;;;;;;4825585;29;19974;-72
2022/05/31 18:26:18;;;;;;;;;;;18.30;61.50;;;;;;4826633;29;19924;-73
2022/05/31 18:31:28;;;;;;;;;;;18.40;61.60;;;;;;4826178;29;19924;-71
2022/05/31 18:33:54;;;;;;;;;;;18.40;61.70;;;;;;4825466;29;19952;-71
2022/05/31 18:36:55;;;;;;;;;;;18.30;61.60;;;;;;4826898;29;20019;-71
2022/05/31 18:39:12;;;;;;;;;;;18.40;61.70;;;;;;4809944;29;20352;-71
2022/05/31 18:41:38;;;;;;;;;;;18.40;61.70;;;;;;4825573;29;20431;-71
2022/05/31 18:44:03;;;;;;;;;;;18.40;61.70;;;;;;4825979;29;19979;-70
2022/05/31 18:46:29;;;;;;;;;;;18.40;61.70;;;;;;4825812;29;19928;-72
2022/05/31 18:48:55;;;;;;;;;;;18.40;61.70;;;;;;4826219;29;19925;-71
2022/05/31 18:51:21;;;;;;;;;;;18.40;61.70;;;;;;4809865;29;19954;-73
2022/05/31 18:53:47;;;;;;;;;;;18.40;61.80;;;;;;4828781;29;20084;-71
2022/05/31 18:56:13;;;;;;;;;;;18.30;61.70;;;;;;4829055;29;19924;-70
2022/05/31 18:58:40;;;;;;;;;;;18.40;61.80;;;;;;4829024;29;19925;-71
2022/05/31 19:01:06;;;;;;;;;;;18.40;61.80;;;;;;4828979;29;19925;-73
2022/05/31 19:03:32;;;;;;;;;;;18.30;61.80;;;;;;4829844;29;19925;-71
2022/05/31 19:05:58;;;;;;;;;;;18.40;61.80;;;;;;4847412;29;19924;-71
2022/05/31 19:08:24;;;;;;;;;;;18.40;61.80;;;;;;4831937;29;19936;-71
2022/05/31 19:10:50;;;;;;;;;;;18.40;61.90;;;;;;4831321;29;19936;-72